Time;durP1;ratioP1;P1;durP2;ratioP2;P2;SDS_P1;SDS_P2;PMS_P1;PMS_P2;Temp;Humidity;BMP_temperature;BMP_pressure;BME280_temperature;BME280_humidity;BME280_pressure;Samples;Min_cycle;Max_cycle;Signal;HPM_P1;HPM_P2
2023/10/11 00:02:55;;;;;;;10.20;6.57;;;18.50;1.00;;;;;;6306448;22;20366;-40
2023/10/11 00:05:22;;;;;;;9.37;6.77;;;18.50;1.00;;;;;;6308026;22;20611;-38
2023/10/11 00:07:48;;;;;;;9.83;6.33;;;18.50;1.00;;;;;;6307633;22;20417;-40
2023/10/11 00:10:19;;;;;;;7.73;6.37;;;18.50;1.00;;;;;;6307428;22;20721;-41
2023/10/11 00:12:50;;;;;;;8.53;6.30;;;18.60;1.00;;;;;;6305394;22;20164;-41
2023/10/11 00:15:16;;;;;;;8.17;5.73;;;18.60;1.00;;;;;;6305385;22;20682;-39
2023/10/11 00:17:46;;;;;;;10.27;5.87;;;18.50;1.00;;;;;;6304923;22;20412;-40
2023/10/11 00:23:21;;;;;;;14.20;6.60;;;18.20;1.00;;;;;;6182520;23;20901;-39
2023/10/11 00:25:49;;;;;;;10.77;6.13;;;18.10;1.00;;;;;;6184336;23;20500;-39
2023/10/11 00:28:14;;;;;;;10.43;7.00;;;18.00;1.00;;;;;;6247399;22;20398;-39
2023/10/11 00:30:40;;;;;;;10.23;6.60;;;17.90;1.00;;;;;;6308723;22;20420;-40
2023/10/11 00:33:09;;;;;;;7.97;5.60;;;17.80;1.00;;;;;;6308011;22;20152;-38
2023/10/11 00:35:44;;;;;;;12.37;6.80;;;17.70;1.00;;;;;;6282893;22;20707;-39
2023/10/11 00:38:11;;;;;;;9.83;6.10;;;17.70;1.00;;;;;;6282164;22;20358;-40
2023/10/11 00:40:37;;;;;;;8.47;6.07;;;17.60;1.00;;;;;;6307925;22;20382;-40
2023/10/11 00:43:03;;;;;;;9.77;6.27;;;17.50;1.00;;;;;;6310521;22;20421;-40
2023/10/11 00:45:36;;;;;;;7.70;6.30;;;17.50;1.00;;;;;;6310527;22;20796;-39
2023/10/11 00:48:06;;;;;;;6.20;5.37;;;17.50;1.00;;;;;;6310168;22;20393;-39
2023/10/11 00:50:32;;;;;;;8.60;6.33;;;17.40;1.00;;;;;;6309403;22;20351;-42
2023/10/11 00:53:00;;;;;;;11.67;6.37;;;17.40;1.00;;;;;;6281765;22;20398;-39
2023/10/11 00:55:29;;;;;;;8.80;6.27;;;17.30;1.00;;;;;;6308242;22;20148;-41
2023/10/11 00:57:56;;;;;;;7.53;5.47;;;17.30;1.00;;;;;;6308795;22;20378;-39
2023/10/11 01:00:23;;;;;;;9.93;6.73;;;17.30;1.00;;;;;;6282049;22;20398;-42
2023/10/11 01:02:51;;;;;;;10.07;6.73;;;17.20;1.00;;;;;;6308898;22;20350;-39
2023/10/11 01:05:18;;;;;;;8.43;5.83;;;17.20;1.00;;;;;;6308741;22;20355;-39
2023/10/11 01:07:44;;;;;;;9.00;5.53;;;17.20;1.00;;;;;;6307221;22;20390;-39
2023/10/11 01:10:11;;;;;;;8.17;6.07;;;17.10;1.00;;;;;;6309034;22;20480;-42
2023/10/11 01:12:38;;;;;;;10.53;6.70;;;17.10;1.00;;;;;;6307807;22;20224;-43
2023/10/11 01:15:11;;;;;;;10.43;7.00;;;17.10;1.00;;;;;;6307286;22;20386;-38
2023/10/11 01:17:38;;;;;;;8.10;6.10;;;17.10;1.00;;;;;;6306923;22;20406;-42
2023/10/11 01:20:13;;;;;;;11.87;6.60;;;17.00;1.00;;;;;;6306473;22;20433;-40
2023/10/11 01:22:41;;;;;;;11.03;6.57;;;17.00;1.00;;;;;;6307200;22;20393;-39
2023/10/11 01:25:07;;;;;;;8.50;6.27;;;17.00;1.00;;;;;;6309097;22;20374;-39
2023/10/11 01:27:32;;;;;;;8.20;5.80;;;17.00;1.00;;;;;;6309089;22;20683;-39
2023/10/11 01:29:58;;;;;;;9.20;6.80;;;17.00;1.00;;;;;;6309119;22;20447;-40
2023/10/11 01:32:24;;;;;;;10.00;6.33;;;16.90;1.00;;;;;;6309281;22;20132;-40
2023/10/11 01:34:51;;;;;;;7.07;5.80;;;17.00;1.00;;;;;;6309415;22;20216;-41
2023/10/11 01:37:21;;;;;;;10.40;6.00;;;16.90;1.00;;;;;;6309068;22;20551;-39
2023/10/11 01:39:46;;;;;;;9.90;6.57;;;16.90;1.00;;;;;;6308905;22;20468;-40
2023/10/11 01:42:12;;;;;;;9.33;6.40;;;16.90;1.00;;;;;;6309294;22;20386;-40
2023/10/11 01:44:38;;;;;;;8.07;5.40;;;16.90;1.00;;;;;;6308358;22;20235;-41
2023/10/11 01:47:05;;;;;;;7.70;5.63;;;16.90;1.00;;;;;;6308045;22;20132;-38
2023/10/11 01:49:37;;;;;;;10.70;5.37;;;16.90;1.00;;;;;;6308671;22;20511;-39
2023/10/11 01:52:03;;;;;;;10.00;5.47;;;16.90;1.00;;;;;;6308629;22;20425;-39
2023/10/11 01:54:28;;;;;;;8.10;6.40;;;16.90;1.00;;;;;;6308418;22;20769;-40
2023/10/11 01:56:56;;;;;;;7.33;5.43;;;16.80;1.00;;;;;;6307807;22;20391;-39
2023/10/11 01:59:22;;;;;;;7.70;5.40;;;16.80;1.00;;;;;;6307790;22;20420;-39
2023/10/11 02:01:58;;;;;;;9.53;5.90;;;16.80;1.00;;;;;;6308843;22;20375;-41
2023/10/11 02:04:25;;;;;;;9.03;5.60;;;16.80;1.00;;;;;;6309168;22;20160;-39
2023/10/11 02:06:51;;;;;;;10.43;5.93;;;16.80;1.00;;;;;;6282058;22;20424;-39
2023/10/11 02:09:20;;;;;;;11.03;6.50;;;16.80;1.00;;;;;;6308211;22;20397;-40
2023/10/11 02:11:46;;;;;;;7.77;6.23;;;16.80;1.00;;;;;;6308334;22;20373;-40
2023/10/11 02:14:13;;;;;;;8.70;6.43;;;16.80;1.00;;;;;;6307770;22;20420;-38
2023/10/11 02:16:39;;;;;;;7.27;5.47;;;16.80;1.00;;;;;;6308577;22;20168;-38
2023/10/11 02:19:05;;;;;;;11.50;5.70;;;16.80;1.00;;;;;;6307400;22;20436;-40
2023/10/11 02:21:31;;;;;;;9.37;5.67;;;16.80;1.00;;;;;;6308557;22;20389;-39
2023/10/11 02:23:58;;;;;;;9.27;6.33;;;16.80;1.00;;;;;;6307173;22;20539;-39
2023/10/11 02:26:31;;;;;;;8.87;6.53;;;16.80;1.00;;;;;;6308823;22;20230;-39
2023/10/11 02:29:00;;;;;;;7.60;6.37;;;16.80;1.00;;;;;;6307624;22;20499;-39
2023/10/11 02:31:27;;;;;;;6.93;5.77;;;16.80;1.00;;;;;;6308567;22;20397;-39
2023/10/11 02:34:04;;;;;;;7.00;5.70;;;16.70;1.00;;;;;;6308690;22;20734;-39
2023/10/11 02:36:34;;;;;;;10.67;6.50;;;16.70;1.00;;;;;;6307234;22;20434;-39
2023/10/11 02:39:00;;;;;;;6.37;5.70;;;16.70;1.00;;;;;;6305187;22;20793;-42
2023/10/11 02:41:26;;;;;;;10.17;6.20;;;16.70;1.00;;;;;;6306585;22;20362;-39
2023/10/11 02:43:57;;;;;;;10.80;6.90;;;16.70;1.00;;;;;;6308522;22;20577;-40
2023/10/11 02:46:23;;;;;;;8.80;5.70;;;16.70;1.00;;;;;;6308519;22;20158;-39
2023/10/11 02:49:18;;;;;;;8.47;5.33;;;16.70;1.00;;;;;;6280283;22;20483;-39
2023/10/11 02:51:52;;;;;;;9.43;6.10;;;16.60;1.00;;;;;;6308548;22;20386;-40
2023/10/11 02:54:19;;;;;;;14.50;7.27;;;16.60;1.00;;;;;;6308407;22;20664;-38
2023/10/11 02:56:48;;;;;;;10.40;6.30;;;16.60;1.00;;;;;;6308062;22;20430;-42
2023/10/11 02:59:22;;;;;;;7.17;5.70;;;16.50;1.00;;;;;;6308364;22;20365;-39
2023/10/11 03:02:15;;;;;;;11.30;6.27;;;16.60;1.00;;;;;;6305705;22;20389;-39
2023/10/11 03:04:39;;;;;;;10.80;7.07;;;16.50;1.00;;;;;;6285216;22;20730;-39
2023/10/11 03:07:09;;;;;;;8.63;5.93;;;16.50;1.00;;;;;;6308090;22;20386;-39
2023/10/11 03:09:36;;;;;;;9.47;5.70;;;16.50;2.20;;;;;;6307780;22;20382;-41
2023/10/11 03:12:06;;;;;;;9.20;5.30;;;16.50;7.50;;;;;;6306833;22;20385;-41
2023/10/11 03:14:41;;;;;;;9.83;5.90;;;16.50;12.90;;;;;;6306614;22;20841;-40
2023/10/11 03:17:13;;;;;;;9.70;5.70;;;16.50;20.80;;;;;;6306700;22;20409;-39
2023/10/11 03:19:42;;;;;;;9.37;6.73;;;16.40;22.60;;;;;;6306013;22;20804;-42
2023/10/11 03:22:09;;;;;;;7.10;5.60;;;16.30;30.70;;;;;;6279909;22;20394;-39
2023/10/11 03:24:40;;;;;;;12.43;5.60;;;16.40;38.60;;;;;;6280571;22;20523;-40
2023/10/11 03:27:09;;;;;;;15.90;6.17;;;16.30;48.00;;;;;;6307709;22;20397;-39
2023/10/11 03:29:35;;;;;;;13.77;6.70;;;16.30;54.40;;;;;;6308202;22;20460;-42
2023/10/11 03:32:01;;;;;;;10.20;6.77;;;16.30;62.60;;;;;;6307964;22;20389;-38
2023/10/11 03:34:29;;;;;;;7.60;6.00;;;16.30;63.70;;;;;;6308312;22;20251;-39
2023/10/11 03:36:59;;;;;;;12.17;6.47;;;16.20;75.00;;;;;;6306211;22;20756;-40
2023/10/11 03:42:07;;;;;;;10.17;6.90;;;16.20;80.40;;;;;;6306759;22;20374;-39
2023/10/11 03:44:36;;;;;;;8.30;5.20;;;16.20;83.80;;;;;;6282359;22;20378;-41
2023/10/11 03:47:06;;;;;;;7.20;5.80;;;16.20;87.10;;;;;;6307390;22;20451;-40
2023/10/11 03:49:37;;;;;;;9.40;5.57;;;16.20;83.80;;;;;;6307560;22;20473;-40
2023/10/11 03:52:04;;;;;;;7.63;5.57;;;16.20;82.50;;;;;;6305737;22;20468;-40
2023/10/11 03:54:30;;;;;;;10.67;6.83;;;16.20;83.00;;;;;;6305975;22;20422;-39
2023/10/11 03:56:56;;;;;;;11.47;6.53;;;16.20;84.70;;;;;;6306100;22;20671;-39
2023/10/11 03:59:25;;;;;;;7.33;5.13;;;16.10;90.50;;;;;;6307761;22;20128;-39
2023/10/11 04:01:54;;;;;;;10.27;6.73;;;16.10;90.50;;;;;;6305847;22;20242;-38
2023/10/11 04:04:21;;;;;;;7.03;5.17;;;16.10;90.50;;;;;;6279513;22;20477;-39
2023/10/11 04:07:01;;;;;;;7.50;5.50;;;16.10;96.30;;;;;;6308300;22;20390;-38
2023/10/11 04:12:04;;;;;;;9.70;6.57;;;16.00;99.90;;;;;;6308050;22;20390;-40
2023/10/11 04:14:45;;;;;;;8.77;5.30;;;16.00;99.90;;;;;;6309794;22;20359;-39
2023/10/11 04:20:17;;;;;;;11.17;6.50;;;16.00;99.90;;;;;;6275016;22;20837;-41
2023/10/11 04:23:01;;;;;;;8.30;6.00;;;16.00;99.90;;;;;;6275413;22;20379;-39
2023/10/11 04:25:31;;;;;;;7.87;6.03;;;16.00;99.90;;;;;;6275572;22;20393;-38
2023/10/11 04:27:57;;;;;;;6.40;5.67;;;16.00;99.90;;;;;;6276763;22;20497;-39
2023/10/11 04:30:41;;;;;;;7.83;6.83;;;16.00;99.90;;;;;;6276499;22;20383;-41
2023/10/11 04:33:22;;;;;;;7.70;5.20;;;16.00;99.90;;;;;;6276696;22;20826;-39
2023/10/11 04:35:57;;;;;;;11.77;6.80;;;15.90;99.90;;;;;;6276569;22;20358;-39
2023/10/11 04:38:23;;;;;;;8.17;6.17;;;15.90;99.90;;;;;;6276803;22;20466;-38
2023/10/11 04:40:52;;;;;;;8.80;6.10;;;15.90;99.90;;;;;;6274940;22;20873;-38
2023/10/11 04:43:21;;;;;;;8.43;6.50;;;15.90;99.90;;;;;;6274200;22;20153;-40
2023/10/11 04:45:47;;;;;;;10.27;6.20;;;15.90;99.90;;;;;;6275155;22;20445;-38
2023/10/11 04:48:30;;;;;;;9.10;5.93;;;15.90;99.90;;;;;;6274636;22;20789;-39
2023/10/11 04:51:04;;;;;;;13.60;6.50;;;15.90;99.90;;;;;;6275986;22;20386;-38
2023/10/11 04:53:54;;;;;;;13.30;6.97;;;15.90;99.90;;;;;;6274064;22;20681;-40
2023/10/11 05:04:32;;;;;;;8.10;6.50;;;15.70;99.90;;;;;;6275178;22;20498;-40
2023/10/11 05:07:03;;;;;;;9.23;6.50;;;15.80;99.90;;;;;;6270967;22;20391;-39
2023/10/11 05:09:38;;;;;;;10.27;6.20;;;15.80;99.90;;;;;;6268566;22;20413;-39
2023/10/11 05:14:56;;;;;;;9.47;6.60;;;15.70;99.90;;;;;;6269260;22;20359;-38
2023/10/11 05:19:56;;;;;;;8.70;5.53;;;15.70;99.90;;;;;;6288468;22;20430;-39
2023/10/11 05:30:10;;;;;;;9.70;6.17;;;15.70;99.90;;;;;;6300496;22;20643;-38
2023/10/11 05:32:49;;;;;;;11.87;6.30;;;15.70;99.90;;;;;;6300844;22;20457;-39
2023/10/11 05:51:33;;;;;;;8.30;6.30;;;15.60;99.90;;;;;;6278082;22;20663;-39
2023/10/11 05:54:05;;;;;;;10.57;5.93;;;15.60;99.90;;;;;;6301889;22;20396;-42
2023/10/11 05:56:45;;;;;;;7.10;5.53;;;15.70;99.90;;;;;;6303377;22;20409;-39
2023/10/11 05:59:13;;;;;;;11.13;5.53;;;15.70;99.90;;;;;;6306129;22;20441;-46
2023/10/11 06:01:43;;;;;;;9.27;5.63;;;15.70;99.90;;;;;;6306131;22;20378;-39
2023/10/11 06:04:13;;;;;;;10.40;5.57;;;15.80;94.30;;;;;;6305391;22;20382;-40
2023/10/11 06:06:46;;;;;;;10.50;5.40;;;15.80;77.60;;;;;;6304566;22;20382;-39
2023/10/11 06:09:18;;;;;;;20.10;6.20;;;15.90;74.40;;;;;;6278422;22;20378;-39
2023/10/11 06:11:50;;;;;;;7.40;5.60;;;16.10;51.20;;;;;;6304887;22;20358;-39
2023/10/11 06:14:17;;;;;;;11.93;5.97;;;16.20;27.90;;;;;;6303890;22;20355;-38
2023/10/11 06:16:49;;;;;;;9.27;5.40;;;16.30;15.00;;;;;;6304912;22;20426;-40
2023/10/11 06:19:16;;;;;;;10.57;6.80;;;16.40;7.40;;;;;;6271749;22;20473;-41
2023/10/11 06:24:33;;;;;;;9.10;5.50;;;16.60;1.00;;;;;;6274636;22;20398;-38
2023/10/11 06:28:09;;;;;;;6.90;4.90;;;16.70;1.00;;;;;;6274594;22;20413;-39
2023/10/11 06:29:57;;;;;;;9.77;5.43;;;16.90;1.00;;;;;;6275477;22;20447;-40
2023/10/11 06:32:24;;;;;;;8.43;5.53;;;17.00;1.00;;;;;;6276040;22;20366;-39
2023/10/11 06:34:50;;;;;;;10.30;5.63;;;17.20;1.00;;;;;;6272191;22;20806;-38
2023/10/11 06:37:18;;;;;;;10.73;5.60;;;17.30;1.00;;;;;;6274385;22;20492;-39
2023/10/11 06:44:52;;;;;;;7.07;5.60;;;17.80;1.00;;;;;;6272745;22;20363;-40
2023/10/11 06:47:20;;;;;;;8.40;6.00;;;18.10;1.00;;;;;;6275012;22;20356;-41
2023/10/11 06:49:54;;;;;;;13.43;5.63;;;18.30;1.00;;;;;;6274036;22;20387;-40
2023/10/11 06:52:25;;;;;;;9.50;6.30;;;18.40;1.00;;;;;;6271640;22;20448;-40
2023/10/11 06:57:41;;;;;;;13.33;4.53;;;18.80;1.00;;;;;;6278175;22;20469;-38
2023/10/11 07:00:21;;;;;;;8.07;5.53;;;19.10;1.00;;;;;;6269721;22;20800;-39
2023/10/11 07:03:21;;;;;;;8.60;4.73;;;19.30;1.00;;;;;;6246540;22;20383;-39
2023/10/11 07:05:48;;;;;;;8.20;5.07;;;19.50;1.00;;;;;;6271460;22;20438;-39
2023/10/11 07:08:18;;;;;;;8.63;5.63;;;19.70;1.00;;;;;;6272647;22;20520;-41
2023/10/11 07:10:45;;;;;;;7.87;5.20;;;19.90;1.00;;;;;;6275216;22;20386;-41
2023/10/11 07:13:13;;;;;;;11.07;5.50;;;20.00;1.00;;;;;;6273467;22;20387;-42
2023/10/11 07:15:47;;;;;;;8.57;5.37;;;20.20;1.00;;;;;;6275583;22;20390;-41
2023/10/11 07:18:24;;;;;;;6.83;5.10;;;20.40;1.00;;;;;;6272991;22;20666;-40
2023/10/11 07:21:07;;;;;;;11.13;4.90;;;20.60;1.00;;;;;;6277640;22;20362;-39
2023/10/11 07:23:55;;;;;;;7.90;4.80;;;20.80;1.00;;;;;;6275811;22;20393;-40
2023/10/11 07:28:56;;;;;;;8.40;5.13;;;21.50;1.00;;;;;;6278158;22;20424;-39
2023/10/11 07:31:31;;;;;;;11.40;5.97;;;21.80;1.00;;;;;;6304664;22;20392;-40
2023/10/11 07:34:08;;;;;;;8.17;5.40;;;22.10;1.00;;;;;;6305482;22;20392;-40
2023/10/11 07:36:38;;;;;;;8.77;5.63;;;22.40;1.00;;;;;;6279634;22;20426;-40
2023/10/11 07:39:25;;;;;;;12.57;4.80;;;22.70;1.00;;;;;;6307267;22;20709;-40
2023/10/11 07:42:07;;;;;;;10.37;5.23;;;22.90;1.00;;;;;;6306299;22;20362;-40
2023/10/11 07:44:36;;;;;;;8.67;5.73;;;23.30;1.00;;;;;;6308325;22;20351;-42
2023/10/11 07:47:03;;;;;;;12.30;5.53;;;23.60;1.00;;;;;;6308050;22;20358;-41
2023/10/11 07:49:37;;;;;;;9.03;4.77;;;23.90;1.00;;;;;;6309402;22;20389;-41
2023/10/11 07:52:08;;;;;;;7.60;5.43;;;24.20;1.00;;;;;;6280065;22;20530;-44
2023/10/11 07:54:39;;;;;;;10.77;5.50;;;24.50;1.00;;;;;;6306655;22;20455;-42
2023/10/11 07:57:15;;;;;;;7.10;4.60;;;24.80;1.00;;;;;;6307221;22;20425;-42
2023/10/11 07:59:42;;;;;;;6.60;5.43;;;25.10;1.00;;;;;;6306387;22;20614;-40
2023/10/11 08:02:10;;;;;;;12.07;5.60;;;25.40;1.00;;;;;;6305450;22;20392;-42
2023/10/11 08:04:47;;;;;;;6.53;4.73;;;25.70;1.00;;;;;;6305335;22;20465;-41
2023/10/11 08:07:16;;;;;;;10.60;5.50;;;26.00;1.00;;;;;;6306103;22;20800;-41
2023/10/11 08:09:45;;;;;;;8.20;5.57;;;26.20;1.00;;;;;;6279384;22;20880;-40
2023/10/11 08:12:15;;;;;;;13.70;5.40;;;26.60;1.00;;;;;;6304503;22;20650;-41
2023/10/11 08:14:45;;;;;;;8.20;6.30;;;26.90;1.00;;;;;;6305444;22;20354;-41
2023/10/11 08:17:19;;;;;;;12.70;5.50;;;27.20;1.00;;;;;;6280215;22;20402;-40
2023/10/11 08:19:46;;;;;;;8.80;5.33;;;27.50;1.00;;;;;;6280259;22;20725;-42
2023/10/11 08:22:14;;;;;;;14.23;5.53;;;27.70;1.00;;;;;;6308195;22;20382;-41
2023/10/11 08:24:48;;;;;;;10.63;6.07;;;28.00;1.00;;;;;;6310098;22;20425;-40
2023/10/11 08:27:22;;;;;;;8.73;5.53;;;28.20;1.00;;;;;;6309352;22;20677;-40
2023/10/11 08:29:53;;;;;;;9.67;5.23;;;28.40;1.00;;;;;;6306715;22;20343;-40
2023/10/11 08:32:18;;;;;;;11.57;6.03;;;28.70;1.00;;;;;;6279982;22;20809;-39
2023/10/11 08:34:46;;;;;;;7.43;5.47;;;29.00;1.00;;;;;;6307920;22;20439;-41
2023/10/11 08:37:15;;;;;;;7.93;5.10;;;29.20;1.00;;;;;;6307707;22;20497;-41
2023/10/11 08:39:46;;;;;;;9.17;5.40;;;29.50;1.00;;;;;;6306042;22;20382;-40
2023/10/11 08:42:15;;;;;;;8.77;5.43;;;29.70;1.00;;;;;;6303706;22;20497;-40
2023/10/11 08:44:47;;;;;;;9.50;6.23;;;30.00;1.00;;;;;;6304756;22;20384;-40
2023/10/11 08:47:14;;;;;;;11.70;5.53;;;30.30;1.00;;;;;;6306140;22;20432;-43
2023/10/11 08:49:42;;;;;;;7.40;5.30;;;30.60;1.00;;;;;;6308788;22;20382;-40
2023/10/11 08:52:11;;;;;;;9.00;6.63;;;30.80;1.00;;;;;;6307235;22;20599;-40
2023/10/11 08:54:37;;;;;;;9.10;5.60;;;31.10;1.00;;;;;;6307949;22;20372;-41
2023/10/11 08:57:03;;;;;;;9.50;5.53;;;31.40;1.00;;;;;;6307207;22;20448;-40
2023/10/11 08:59:31;;;;;;;9.90;5.57;;;31.70;1.00;;;;;;6308011;22;20351;-43
2023/10/11 09:02:07;;;;;;;9.50;5.27;;;32.00;1.00;;;;;;6307988;22;20235;-41
2023/10/11 09:04:35;;;;;;;11.77;6.10;;;32.30;1.00;;;;;;6306638;22;20382;-43
2023/10/11 09:07:01;;;;;;;11.40;6.10;;;32.60;1.00;;;;;;6308101;22;20402;-40
2023/10/11 09:09:39;;;;;;;13.63;5.33;;;33.00;1.00;;;;;;6308591;22;20393;-39
2023/10/11 09:12:23;;;;;;;8.23;6.10;;;33.40;1.00;;;;;;6308075;22;20473;-42
2023/10/11 09:14:58;;;;;;;7.90;5.70;;;33.80;1.00;;;;;;6285448;22;20333;-42
2023/10/11 09:17:25;;;;;;;8.90;5.67;;;34.10;1.00;;;;;;6307419;22;20413;-41
2023/10/11 09:19:53;;;;;;;8.30;5.60;;;34.30;1.00;;;;;;6308373;22;20524;-41
2023/10/11 09:22:18;;;;;;;9.77;5.87;;;34.70;1.00;;;;;;6308741;22;20455;-40
2023/10/11 09:24:44;;;;;;;8.63;5.17;;;35.10;1.00;;;;;;6307555;22;20393;-42
2023/10/11 09:29:43;;;;;;;8.07;5.90;;;35.70;1.00;;;;;;6306151;22;20140;-41
2023/10/11 09:32:09;;;;;;;11.57;5.70;;;36.10;1.00;;;;;;6307955;22;20544;-40
2023/10/11 09:34:41;;;;;;;9.40;6.47;;;36.30;1.00;;;;;;6307861;22;20386;-40
2023/10/11 09:37:13;;;;;;;7.30;5.90;;;36.60;1.00;;;;;;6280635;22;20847;-41
2023/10/11 09:39:42;;;;;;;11.77;5.50;;;36.90;1.00;;;;;;6306877;22;20480;-42
2023/10/11 09:42:11;;;;;;;9.00;5.50;;;37.20;1.00;;;;;;6307107;22;20476;-41
2023/10/11 09:44:37;;;;;;;8.17;5.43;;;37.50;1.00;;;;;;6306794;22;20589;-43
2023/10/11 09:47:05;;;;;;;11.63;5.50;;;37.60;1.00;;;;;;6303569;22;20666;-40
2023/10/11 09:49:41;;;;;;;7.67;6.20;;;37.80;1.00;;;;;;6303284;22;20397;-40
2023/10/11 09:52:11;;;;;;;8.13;5.30;;;38.00;1.00;;;;;;6276509;22;20463;-41
2023/10/11 09:54:39;;;;;;;8.80;5.50;;;38.30;1.00;;;;;;6303007;22;20390;-40
2023/10/11 09:57:21;;;;;;;8.83;5.80;;;38.60;1.00;;;;;;6304978;22;20430;-41
2023/10/11 09:59:47;;;;;;;8.63;5.37;;;38.80;1.00;;;;;;6304280;22;20692;-40
2023/10/11 10:02:23;;;;;;;9.03;5.60;;;39.10;1.00;;;;;;6279285;22;20378;-40
2023/10/11 10:04:51;;;;;;;8.13;5.90;;;39.30;1.00;;;;;;6277943;22;20144;-40
2023/10/11 10:10:06;;;;;;;9.00;5.70;;;39.80;1.00;;;;;;6303802;22;20395;-44
2023/10/11 10:12:55;;;;;;;9.20;6.40;;;39.90;1.00;;;;;;6305266;22;20780;-40
2023/10/11 10:15:23;;;;;;;6.30;5.30;;;40.00;1.00;;;;;;6285676;22;20433;-41
2023/10/11 10:18:00;;;;;;;7.03;5.63;;;40.40;1.00;;;;;;6305942;22;20406;-40
2023/10/11 10:20:49;;;;;;;10.10;5.30;;;40.60;1.00;;;;;;6305194;22;20414;-39
2023/10/11 10:23:15;;;;;;;9.80;5.53;;;40.60;1.00;;;;;;6306920;22;20359;-43
2023/10/11 10:25:48;;;;;;;7.77;5.47;;;40.70;1.00;;;;;;6304432;22;20483;-40
2023/10/11 10:28:34;;;;;;;7.00;5.60;;;40.80;1.00;;;;;;6304420;22;20152;-43
2023/10/11 10:31:17;;;;;;;9.57;6.07;;;41.00;1.00;;;;;;6303956;22;20374;-38
2023/10/11 10:34:13;;;;;;;10.90;5.70;;;41.00;1.00;;;;;;6304381;22;20417;-38
2023/10/11 10:36:40;;;;;;;10.47;6.10;;;39.10;1.00;;;;;;6302807;22;20421;-41
2023/10/11 10:39:36;;;;;;;7.03;5.90;;;38.10;1.00;;;;;;6305594;22;20382;-43
2023/10/11 10:42:15;;;;;;;11.33;6.77;;;37.40;1.00;;;;;;6301827;22;20381;-44
2023/10/11 10:44:51;;;;;;;10.17;5.40;;;37.00;1.00;;;;;;6300259;22;20438;-42
2023/10/11 10:47:23;;;;;;;8.10;5.63;;;36.90;99.90;;;;;;6297786;22;20409;-41
2023/10/11 10:49:51;;;;;;;11.57;6.40;;;36.50;99.90;;;;;;6301492;22;20382;-43
2023/10/11 10:52:29;;;;;;;10.73;5.90;;;36.50;99.90;;;;;;6301386;22;20669;-42
2023/10/11 10:55:02;;;;;;;8.20;5.83;;;36.60;99.90;;;;;;6304560;22;20683;-41
2023/10/11 10:57:32;;;;;;;9.03;4.90;;;36.60;99.90;;;;;;6303497;22;20797;-44
2023/10/11 11:00:05;;;;;;;9.20;5.17;;;36.80;99.90;;;;;;6302292;22;20789;-42
2023/10/11 11:02:35;;;;;;;8.63;5.57;;;36.80;99.90;;;;;;6300576;22;20423;-43
2023/10/11 11:05:01;;;;;;;10.70;5.97;;;36.60;99.90;;;;;;6299530;22;20387;-42
2023/10/11 11:07:27;;;;;;;10.80;6.17;;;36.80;99.90;;;;;;6303178;22;20852;-40
2023/10/11 11:09:57;;;;;;;7.93;5.03;;;37.00;99.90;;;;;;6299064;22;20386;-42
2023/10/11 11:12:30;;;;;;;7.93;5.17;;;37.10;1.00;;;;;;6273081;22;20393;-44
2023/10/11 11:15:00;;;;;;;8.20;5.90;;;37.10;99.90;;;;;;6301250;22;20626;-42
2023/10/11 11:17:47;;;;;;;14.70;6.40;;;37.20;99.90;;;;;;6302463;22;20688;-41
2023/10/11 11:22:52;;;;;;;8.37;6.27;;;37.30;99.90;;;;;;6301097;22;20587;-44
2023/10/11 11:25:27;;;;;;;10.33;5.80;;;37.60;99.90;;;;;;6303090;22;20455;-42
2023/10/11 11:28:16;;;;;;;11.20;5.90;;;37.60;99.90;;;;;;6303336;22;20425;-43
2023/10/11 11:31:25;;;;;;;10.90;5.20;;;37.30;99.90;;;;;;6303371;22;20360;-42
2023/10/11 11:34:07;;;;;;;9.50;4.83;;;36.40;99.90;;;;;;6300378;22;20353;-43
2023/10/11 11:36:40;;;;;;;8.90;4.97;;;36.50;99.90;;;;;;6301188;22;20356;-42
2023/10/11 11:42:19;;;;;;;9.90;5.23;;;36.30;99.90;;;;;;6231461;22;20394;-43
2023/10/11 11:44:46;;;;;;;8.70;4.27;;;36.20;99.90;;;;;;6300399;22;20355;-43
2023/10/11 11:47:13;;;;;;;6.03;4.83;;;36.40;99.90;;;;;;6301699;22;20380;-42
2023/10/11 11:49:38;;;;;;;7.40;4.73;;;36.50;99.90;;;;;;6303429;22;20386;-43
2023/10/11 11:52:04;;;;;;;9.10;5.07;;;36.60;99.90;;;;;;6301600;22;20473;-43
2023/10/11 11:54:31;;;;;;;7.33;5.07;;;36.40;99.90;;;;;;6302362;22;20207;-43
2023/10/11 11:56:57;;;;;;;7.77;5.00;;;36.50;99.90;;;;;;6298283;22;20362;-41
2023/10/11 11:59:24;;;;;;;7.63;4.77;;;36.60;99.90;;;;;;6272845;22;20614;-43
2023/10/11 12:01:56;;;;;;;7.63;4.67;;;36.20;99.90;;;;;;6302515;22;20361;-43
2023/10/11 12:04:29;;;;;;;8.00;5.10;;;36.00;99.90;;;;;;6301225;22;20799;-43
2023/10/11 12:07:00;;;;;;;5.90;4.80;;;35.60;99.90;;;;;;6301396;22;20674;-43
2023/10/11 12:09:33;;;;;;;7.77;4.77;;;35.50;99.90;;;;;;6298269;22;20357;-43
2023/10/11 12:12:05;;;;;;;9.10;5.10;;;35.80;99.90;;;;;;6299663;22;20357;-45
2023/10/11 12:14:37;;;;;;;10.63;5.10;;;36.20;99.90;;;;;;6299896;22;20393;-45
2023/10/11 12:17:09;;;;;;;6.60;5.23;;;36.50;99.90;;;;;;6299632;22;20374;-43
2023/10/11 12:19:44;;;;;;;8.93;5.47;;;36.70;99.90;;;;;;6303196;22;20690;-43
2023/10/11 12:22:14;;;;;;;7.70;5.33;;;36.80;99.90;;;;;;6306312;22;20385;-43
2023/10/11 12:24:46;;;;;;;7.73;4.57;;;37.00;99.90;;;;;;6306063;22;20385;-42
2023/10/11 12:27:12;;;;;;;6.37;4.70;;;37.30;99.90;;;;;;6305990;22;20443;-45
2023/10/11 12:29:38;;;;;;;8.57;5.10;;;37.70;99.90;;;;;;6304614;22;20636;-44
2023/10/11 12:32:04;;;;;;;7.53;4.70;;;37.90;99.90;;;;;;6304612;22;20124;-43
2023/10/11 12:34:32;;;;;;;5.47;4.50;;;37.70;99.90;;;;;;6305872;22;20412;-44
2023/10/11 12:37:00;;;;;;;6.50;5.07;;;37.60;99.90;;;;;;6252882;22;20770;-43
2023/10/11 12:39:29;;;;;;;8.20;4.57;;;37.40;99.90;;;;;;6250422;22;20381;-45
2023/10/11 12:41:56;;;;;;;5.90;4.70;;;37.10;99.90;;;;;;6304249;22;20366;-42
2023/10/11 12:44:22;;;;;;;9.63;4.97;;;36.90;99.90;;;;;;6274827;22;20617;-42
2023/10/11 12:46:50;;;;;;;6.03;4.47;;;36.50;99.90;;;;;;6276693;22;20683;-44
2023/10/11 12:49:16;;;;;;;6.63;4.97;;;36.40;99.90;;;;;;6251275;22;20402;-42
2023/10/11 12:51:44;;;;;;;5.40;4.60;;;36.50;99.90;;;;;;6274566;22;20566;-45
2023/10/11 12:54:13;;;;;;;4.80;4.00;;;36.60;99.90;;;;;;6302173;22;20507;-42
2023/10/11 12:56:39;;;;;;;8.50;4.27;;;36.60;99.90;;;;;;6303073;22;20396;-45
2023/10/11 12:59:23;;;;;;;5.57;4.33;;;36.60;99.90;;;;;;6276903;22;20793;-43
2023/10/11 13:01:52;;;;;;;5.47;4.27;;;36.80;99.90;;;;;;6302425;22;20363;-44
2023/10/11 13:04:24;;;;;;;7.00;4.33;;;37.10;99.90;;;;;;6305226;22;20407;-46
2023/10/11 13:06:50;;;;;;;6.23;4.13;;;37.40;99.90;;;;;;6306291;22;20841;-43
2023/10/11 13:09:27;;;;;;;9.37;5.90;;;37.70;99.90;;;;;;6305612;22;20489;-46
2023/10/11 13:11:56;;;;;;;9.50;5.30;;;37.80;99.90;;;;;;6307456;22;20361;-44
2023/10/11 13:14:22;;;;;;;5.13;4.60;;;38.10;99.90;;;;;;6307386;22;20388;-44
2023/10/11 13:16:53;;;;;;;7.47;4.57;;;38.50;99.90;;;;;;6279514;22;20398;-43
2023/10/11 13:19:24;;;;;;;5.60;4.17;;;38.60;99.90;;;;;;6305450;22;20457;-42
2023/10/11 13:21:54;;;;;;;12.80;4.60;;;38.40;99.90;;;;;;6279097;22;20509;-42
2023/10/11 13:24:24;;;;;;;8.17;4.60;;;38.50;99.90;;;;;;6307602;22;20443;-48
2023/10/11 13:26:51;;;;;;;9.03;5.70;;;38.20;99.90;;;;;;6305488;22;20402;-43
2023/10/11 13:29:17;;;;;;;7.20;4.73;;;37.60;99.90;;;;;;6304773;22;20759;-43
2023/10/11 13:31:53;;;;;;;8.70;5.53;;;37.10;99.90;;;;;;6304983;22;20454;-43
2023/10/11 13:34:24;;;;;;;9.50;5.50;;;36.70;99.90;;;;;;6305501;22;20232;-42
2023/10/11 13:36:51;;;;;;;5.83;4.57;;;36.70;99.90;;;;;;6304403;22;20390;-45
2023/10/11 13:39:26;;;;;;;8.13;4.80;;;36.60;99.90;;;;;;6303145;22;20398;-43
2023/10/11 13:41:56;;;;;;;9.13;5.43;;;36.70;99.90;;;;;;6304354;22;20477;-43
2023/10/11 13:44:24;;;;;;;6.10;4.80;;;36.70;99.90;;;;;;6302084;22;20363;-45
2023/10/11 13:46:52;;;;;;;7.70;5.27;;;36.60;99.90;;;;;;6251053;22;20408;-44
2023/10/11 13:49:25;;;;;;;10.10;5.93;;;36.50;99.90;;;;;;6247537;22;20421;-42
2023/10/11 13:51:58;;;;;;;13.27;5.17;;;36.20;99.90;;;;;;6271153;22;20451;-42
2023/10/11 13:54:42;;;;;;;5.50;4.60;;;36.10;99.90;;;;;;6303066;22;20589;-43
2023/10/11 13:57:18;;;;;;;8.70;5.73;;;36.10;99.90;;;;;;6304059;22;20473;-42
2023/10/11 13:59:48;;;;;;;6.40;4.50;;;36.00;99.90;;;;;;6300973;22;20720;-42
2023/10/11 14:04:48;;;;;;;9.27;5.27;;;35.90;99.90;;;;;;6303298;22;20794;-45
2023/10/11 14:07:27;;;;;;;6.10;4.60;;;36.10;99.90;;;;;;6275469;22;20451;-42
2023/10/11 14:09:54;;;;;;;8.53;5.70;;;36.10;99.90;;;;;;6304855;22;20356;-42
2023/10/11 14:12:29;;;;;;;11.50;5.23;;;36.40;99.90;;;;;;6301899;22;20353;-42
2023/10/11 14:14:56;;;;;;;6.00;4.70;;;36.10;99.90;;;;;;6303700;22;20329;-43
2023/10/11 14:17:24;;;;;;;8.30;4.93;;;36.20;99.90;;;;;;6302230;22;20461;-43
2023/10/11 14:19:53;;;;;;;6.43;4.53;;;36.20;99.90;;;;;;6305447;22;20430;-43
2023/10/11 14:22:21;;;;;;;5.90;4.20;;;36.20;99.90;;;;;;6303476;22;20390;-46
2023/10/11 14:24:51;;;;;;;6.37;4.50;;;36.20;99.90;;;;;;6301052;22;20436;-44
2023/10/11 14:27:18;;;;;;;6.83;4.97;;;35.80;99.90;;;;;;6276398;22;20504;-43